Aviation Digital Data Service (ADDS)

Output produced by METARs form (1411 UTC 21 August 2019)
found at http://www.aviationweather.gov/metar/data/
 
KLAS 211120Z 2112/2218 VRB04KT P6SM SKC 
     FM211900 11009KT P6SM SKC 
     FM212300 20010KT P6SM SKC